sensor_id;sensor_type;location;lat;lon;timestamp;pressure;altitude;pressure_sealevel;temperature;humidity
19447;BME280;9862;49.462;11.054;2022-07-19T00:00:30;98492.94;;;24.44;52.93
19447;BME280;9862;49.462;11.054;2022-07-19T00:02:57;98496.78;;;24.43;53.23
19447;BME280;9862;49.462;11.054;2022-07-19T00:05:24;98495.97;;;24.42;53.08
19447;BME280;9862;49.462;11.054;2022-07-19T00:07:51;98492.13;;;24.43;52.96
19447;BME280;9862;49.462;11.054;2022-07-19T00:10:18;98492.13;;;24.43;53.24
19447;BME280;9862;49.462;11.054;2022-07-19T00:12:46;98493.78;;;24.39;53.08
19447;BME280;9862;49.462;11.054;2022-07-19T00:15:15;98495.78;;;24.34;53.01
19447;BME280;9862;49.462;11.054;2022-07-19T00:17:45;98491.44;;;24.33;53.28
19447;BME280;9862;49.462;11.054;2022-07-19T00:20:15;98494.41;;;24.31;53.33
19447;BME280;9862;49.462;11.054;2022-07-19T00:22:42;98486.81;;;24.33;53.15
19447;BME280;9862;49.462;11.054;2022-07-19T00:25:09;98491.44;;;24.27;53.31
19447;BME280;9862;49.462;11.054;2022-07-19T00:27:36;98485.22;;;24.22;53.14
19447;BME280;9862;49.462;11.054;2022-07-19T00:30:04;98492.09;;;24.14;54.32
19447;BME280;9862;49.462;11.054;2022-07-19T00:32:31;98489.13;;;24.11;54.37
19447;BME280;9862;49.462;11.054;2022-07-19T00:34:59;98494.28;;;24.12;54.44
19447;BME280;9862;49.462;11.054;2022-07-19T00:37:26;98492.66;;;24.11;54.10
19447;BME280;9862;49.462;11.054;2022-07-19T00:39:53;98488.91;;;24.07;54.61
19447;BME280;9862;49.462;11.054;2022-07-19T00:42:20;98484.59;;;24.01;54.86
19447;BME280;9862;49.462;11.054;2022-07-19T00:44:47;98485.97;;;23.98;54.90
19447;BME280;9862;49.462;11.054;2022-07-19T00:47:15;98491.41;;;23.98;54.88
19447;BME280;9862;49.462;11.054;2022-07-19T00:49:41;98491.41;;;23.98;54.91
19447;BME280;9862;49.462;11.054;2022-07-19T00:52:10;98491.72;;;23.92;55.26
19447;BME280;9862;49.462;11.054;2022-07-19T00:54:40;98494.44;;;23.92;54.83
19447;BME280;9862;49.462;11.054;2022-07-19T00:57:09;98499.66;;;23.88;55.27
19447;BME280;9862;49.462;11.054;2022-07-19T00:59:36;98503.50;;;23.82;55.79
19447;BME280;9862;49.462;11.054;2022-07-19T01:02:03;98498.06;;;23.82;55.75
19447;BME280;9862;49.462;11.054;2022-07-19T01:04:30;98497.53;;;23.80;56.40
19447;BME280;9862;49.462;11.054;2022-07-19T01:06:58;98503.50;;;23.82;57.36
19447;BME280;9862;49.462;11.054;2022-07-19T01:09:26;98500.78;;;23.82;57.08
19447;BME280;9862;49.462;11.054;2022-07-19T01:11:52;98498.88;;;23.83;57.41
19447;BME280;9862;49.462;11.054;2022-07-19T01:14:20;98501.88;;;23.81;57.52
19447;BME280;9862;49.462;11.054;2022-07-19T01:16:56;98506.28;;;23.77;58.11
19447;BME280;9862;49.462;11.054;2022-07-19T01:19:24;98501.63;;;23.78;58.32
19447;BME280;9862;49.462;11.054;2022-07-19T01:21:52;98497.00;;;23.78;57.60
19447;BME280;9862;49.462;11.054;2022-07-19T01:24:19;98502.16;;;23.80;57.36
19447;BME280;9862;49.462;11.054;2022-07-19T01:26:46;98499.97;;;23.82;56.75
19447;BME280;9862;49.462;11.054;2022-07-19T01:29:14;98498.63;;;23.79;57.34
19447;BME280;9862;49.462;11.054;2022-07-19T01:31:45;98498.34;;;23.81;57.06
19447;BME280;9862;49.462;11.054;2022-07-19T01:34:11;98502.44;;;23.78;56.96
19447;BME280;9862;49.462;11.054;2022-07-19T01:36:38;98499.22;;;23.76;56.35
19447;BME280;9862;49.462;11.054;2022-07-19T01:39:07;98498.94;;;23.73;56.42
19447;BME280;9862;49.462;11.054;2022-07-19T01:41:34;98489.69;;;23.74;56.88
19447;BME280;9862;49.462;11.054;2022-07-19T01:44:00;98487.03;;;23.68;56.69
19447;BME280;9862;49.462;11.054;2022-07-19T01:46:27;98489.47;;;23.70;57.07
19447;BME280;9862;49.462;11.054;2022-07-19T01:48:54;98492.47;;;23.68;57.27
19447;BME280;9862;49.462;11.054;2022-07-19T01:51:21;98491.66;;;23.68;57.05
19447;BME280;9862;49.462;11.054;2022-07-19T01:53:47;98494.66;;;23.66;57.42
19447;BME280;9862;49.462;11.054;2022-07-19T01:56:17;98502.28;;;23.64;57.62
19447;BME280;9862;49.462;11.054;2022-07-19T01:58:44;98494.16;;;23.59;57.78
19447;BME280;9862;49.462;11.054;2022-07-19T02:01:11;98494.97;;;23.55;58.13
19447;BME280;9862;49.462;11.054;2022-07-19T02:03:38;98487.38;;;23.52;58.35
19447;BME280;9862;49.462;11.054;2022-07-19T02:06:05;98492.28;;;23.50;58.69
19447;BME280;9862;49.462;11.054;2022-07-19T02:08:32;98486.31;;;23.48;59.77
19447;BME280;9862;49.462;11.054;2022-07-19T02:10:59;98485.19;;;23.54;60.12
19447;BME280;9862;49.462;11.054;2022-07-19T02:13:48;98484.94;;;23.50;60.62
19447;BME280;9862;49.462;11.054;2022-07-19T02:16:15;98483.09;;;23.46;61.02
19447;BME280;9862;49.462;11.054;2022-07-19T02:18:42;98479.56;;;23.45;61.30
19447;BME280;9862;49.462;11.054;2022-07-19T02:21:12;98478.19;;;23.42;61.38
19447;BME280;9862;49.462;11.054;2022-07-19T02:23:38;98476.28;;;23.43;61.29
19447;BME280;9862;49.462;11.054;2022-07-19T02:26:06;98489.06;;;23.42;60.43
19447;BME280;9862;49.462;11.054;2022-07-19T02:28:33;98484.19;;;23.39;60.06
19447;BME280;9862;49.462;11.054;2022-07-19T02:31:10;98489.38;;;23.36;60.49
19447;BME280;9862;49.462;11.054;2022-07-19T02:33:37;98490.75;;;23.33;60.93
19447;BME280;9862;49.462;11.054;2022-07-19T02:36:05;98489.13;;;23.32;60.77
19447;BME280;9862;49.462;11.054;2022-07-19T02:38:35;98487.53;;;23.26;61.29
19447;BME280;9862;49.462;11.054;2022-07-19T02:41:03;98491.59;;;23.24;61.66
19447;BME280;9862;49.462;11.054;2022-07-19T02:43:30;98493.50;;;23.23;61.49
19447;BME280;9862;49.462;11.054;2022-07-19T02:45:58;98499.25;;;23.17;62.19
19447;BME280;9862;49.462;11.054;2022-07-19T02:48:33;98500.06;;;23.17;65.29
19447;BME280;9862;49.462;11.054;2022-07-19T02:51:00;98498.97;;;23.18;67.19
19447;BME280;9862;49.462;11.054;2022-07-19T02:53:27;98505.00;;;23.05;68.41
19447;BME280;9862;49.462;11.054;2022-07-19T02:55:54;98513.22;;;22.90;70.78
19447;BME280;9862;49.462;11.054;2022-07-19T02:58:21;98517.59;;;22.70;72.17
19447;BME280;9862;49.462;11.054;2022-07-19T03:00:48;98511.09;;;22.56;74.46
19447;BME280;9862;49.462;11.054;2022-07-19T03:03:15;98509.47;;;22.55;75.33
19447;BME280;9862;49.462;11.054;2022-07-19T03:06:00;98506.19;;;22.58;74.67
19447;BME280;9862;49.462;11.054;2022-07-19T03:08:27;98509.72;;;22.64;74.18
19447;BME280;9862;49.462;11.054;2022-07-19T03:10:54;98504.53;;;22.67;72.50
19447;BME280;9862;49.462;11.054;2022-07-19T03:13:24;98501.84;;;22.67;72.93
19447;BME280;9862;49.462;11.054;2022-07-19T03:15:51;98502.91;;;22.66;73.30
19447;BME280;9862;49.462;11.054;2022-07-19T03:18:18;98496.97;;;22.64;72.58
19447;BME280;9862;49.462;11.054;2022-07-19T03:20:45;98511.63;;;22.58;73.32
19447;BME280;9862;49.462;11.054;2022-07-19T03:23:14;98510.56;;;22.59;73.29
19447;BME280;9862;49.462;11.054;2022-07-19T03:25:41;98507.28;;;22.62;72.47
19447;BME280;9862;49.462;11.054;2022-07-19T03:28:08;98508.38;;;22.61;72.07
19447;BME280;9862;49.462;11.054;2022-07-19T03:30:35;98501.88;;;22.62;71.55
19447;BME280;9862;49.462;11.054;2022-07-19T03:33:01;98497.78;;;22.65;71.31
19447;BME280;9862;49.462;11.054;2022-07-19T03:35:28;98502.66;;;22.68;71.77
19447;BME280;9862;49.462;11.054;2022-07-19T03:37:55;98494.25;;;22.64;71.53
19447;BME280;9862;49.462;11.054;2022-07-19T03:40:24;98498.06;;;22.63;71.64
19447;BME280;9862;49.462;11.054;2022-07-19T03:42:50;98498.06;;;22.63;71.83
19447;BME280;9862;49.462;11.054;2022-07-19T03:45:17;98488.84;;;22.59;71.71
19447;BME280;9862;49.462;11.054;2022-07-19T03:47:44;98495.09;;;22.60;71.53
19447;BME280;9862;49.462;11.054;2022-07-19T03:50:13;98493.72;;;22.62;70.36
19447;BME280;9862;49.462;11.054;2022-07-19T03:52:40;98489.91;;;22.58;70.37
19447;BME280;9862;49.462;11.054;2022-07-19T03:55:07;98495.63;;;22.56;70.42
19447;BME280;9862;49.462;11.054;2022-07-19T03:57:35;98495.91;;;22.55;70.34
19447;BME280;9862;49.462;11.054;2022-07-19T04:00:04;98500.25;;;22.51;70.10
19447;BME280;9862;49.462;11.054;2022-07-19T04:02:34;98500.53;;;22.49;70.41
19447;BME280;9862;49.462;11.054;2022-07-19T04:05:01;98499.16;;;22.47;70.55
19447;BME280;9862;49.462;11.054;2022-07-19T04:07:28;98506.78;;;22.50;70.81
19447;BME280;9862;49.462;11.054;2022-07-19T04:09:55;98510.84;;;22.47;70.76
19447;BME280;9862;49.462;11.054;2022-07-19T04:12:22;98512.44;;;22.48;71.12
19447;BME280;9862;49.462;11.054;2022-07-19T04:14:56;98510.31;;;22.40;74.68
19447;BME280;9862;49.462;11.054;2022-07-19T04:17:25;98521.44;;;22.34;77.38
19447;BME280;9862;49.462;11.054;2022-07-19T04:19:52;98517.94;;;22.23;79.11
19447;BME280;9862;49.462;11.054;2022-07-19T04:22:19;98522.53;;;22.22;79.45
19447;BME280;9862;49.462;11.054;2022-07-19T04:24:49;98522.78;;;22.26;78.97
19447;BME280;9862;49.462;11.054;2022-07-19T04:27:16;98521.44;;;22.28;78.48
19447;BME280;9862;49.462;11.054;2022-07-19T04:29:42;98527.94;;;22.33;78.09
19447;BME280;9862;49.462;11.054;2022-07-19T04:32:11;98532.28;;;22.39;77.57
19447;BME280;9862;49.462;11.054;2022-07-19T04:34:38;98533.38;;;22.43;77.19
19447;BME280;9862;49.462;11.054;2022-07-19T04:37:05;98533.63;;;22.46;77.25
19447;BME280;9862;49.462;11.054;2022-07-19T04:39:32;98532.53;;;22.47;77.29
19447;BME280;9862;49.462;11.054;2022-07-19T04:41:59;98524.16;;;22.49;77.25
19447;BME280;9862;49.462;11.054;2022-07-19T04:44:26;98526.31;;;22.52;76.94
19447;BME280;9862;49.462;11.054;2022-07-19T04:46:53;98517.59;;;22.55;77.29
19447;BME280;9862;49.462;11.054;2022-07-19T04:49:21;98509.75;;;22.59;77.08
19447;BME280;9862;49.462;11.054;2022-07-19T04:51:51;98514.63;;;22.62;77.19
19447;BME280;9862;49.462;11.054;2022-07-19T04:54:18;98520.00;;;22.67;76.50
19447;BME280;9862;49.462;11.054;2022-07-19T04:56:47;98522.72;;;22.72;74.65
19447;BME280;9862;49.462;11.054;2022-07-19T04:59:14;98520.28;;;22.80;72.20
19447;BME280;9862;49.462;11.054;2022-07-19T05:01:42;98528.41;;;22.85;70.47
19447;BME280;9862;49.462;11.054;2022-07-19T05:04:09;98527.88;;;22.89;69.70
19447;BME280;9862;49.462;11.054;2022-07-19T05:06:40;98519.16;;;22.92;69.86
19447;BME280;9862;49.462;11.054;2022-07-19T05:09:08;98517.44;;;23.16;77.13
19447;BME280;9862;49.462;11.054;2022-07-19T05:11:35;98515.06;;;23.54;76.51
19447;BME280;9862;49.462;11.054;2022-07-19T05:14:02;98519.56;;;23.79;70.89
19447;BME280;9862;49.462;11.054;2022-07-19T05:16:29;98509.94;;;23.96;67.63
19447;BME280;9862;49.462;11.054;2022-07-19T05:18:56;98506.25;;;24.11;65.43
19447;BME280;9862;49.462;11.054;2022-07-19T05:21:23;98514.63;;;24.20;64.35
19447;BME280;9862;49.462;11.054;2022-07-19T05:23:51;98507.47;;;24.29;63.87
19447;BME280;9862;49.462;11.054;2022-07-19T05:26:18;98515.03;;;24.37;62.10
19447;BME280;9862;49.462;11.054;2022-07-19T05:28:44;98519.91;;;24.40;61.57
19447;BME280;9862;49.462;11.054;2022-07-19T05:31:11;98518.00;;;24.41;60.31
19447;BME280;9862;49.462;11.054;2022-07-19T05:33:38;98519.34;;;24.43;59.51
19447;BME280;9862;49.462;11.054;2022-07-19T05:36:05;98518.75;;;24.46;59.00
19447;BME280;9862;49.462;11.054;2022-07-19T05:38:34;98523.88;;;24.53;58.78
19447;BME280;9862;49.462;11.054;2022-07-19T05:41:04;98512.13;;;24.58;58.62
19447;BME280;9862;49.462;11.054;2022-07-19T05:43:31;98519.94;;;24.64;58.27
19447;BME280;9862;49.462;11.054;2022-07-19T05:45:58;98517.97;;;24.70;58.52
19447;BME280;9862;49.462;11.054;2022-07-19T05:48:24;98511.38;;;24.76;58.35
19447;BME280;9862;49.462;11.054;2022-07-19T05:50:52;98519.78;;;24.79;58.15
19447;BME280;9862;49.462;11.054;2022-07-19T05:53:22;98518.16;;;24.78;58.78
19447;BME280;9862;49.462;11.054;2022-07-19T05:55:52;98514.97;;;24.71;58.89
19447;BME280;9862;49.462;11.054;2022-07-19T05:58:28;98515.31;;;24.65;59.32
19447;BME280;9862;49.462;11.054;2022-07-19T06:00:55;98515.09;;;24.61;59.33
19447;BME280;9862;49.462;11.054;2022-07-19T06:03:39;98510.78;;;24.55;59.29
19447;BME280;9862;49.462;11.054;2022-07-19T06:06:13;98501.53;;;24.56;59.49
19447;BME280;9862;49.462;11.054;2022-07-19T06:08:43;98510.78;;;24.55;59.88
19447;BME280;9862;49.462;11.054;2022-07-19T06:11:11;98513.44;;;24.60;59.79
19447;BME280;9862;49.462;11.054;2022-07-19T06:13:41;98507.44;;;24.63;59.65
19447;BME280;9862;49.462;11.054;2022-07-19T06:16:08;98517.75;;;24.66;59.90
19447;BME280;9862;49.462;11.054;2022-07-19T06:18:36;98506.56;;;24.68;59.68
19447;BME280;9862;49.462;11.054;2022-07-19T06:21:04;98507.09;;;24.70;59.93
19447;BME280;9862;49.462;11.054;2022-07-19T06:23:31;98503.84;;;24.68;59.81
19447;BME280;9862;49.462;11.054;2022-07-19T06:26:02;98503.03;;;24.67;59.64
19447;BME280;9862;49.462;11.054;2022-07-19T06:28:29;98503.84;;;24.68;59.84
19447;BME280;9862;49.462;11.054;2022-07-19T06:30:57;98500.81;;;24.69;59.77
19447;BME280;9862;49.462;11.054;2022-07-19T06:33:24;98504.34;;;24.70;59.73
19447;BME280;9862;49.462;11.054;2022-07-19T06:35:55;98509.25;;;24.73;59.66
19447;BME280;9862;49.462;11.054;2022-07-19T06:38:25;98504.31;;;24.75;59.61
19447;BME280;9862;49.462;11.054;2022-07-19T06:40:57;98501.31;;;24.76;59.26
19447;BME280;9862;49.462;11.054;2022-07-19T06:43:24;98501.81;;;24.78;58.78
19447;BME280;9862;49.462;11.054;2022-07-19T06:45:51;98498.00;;;24.79;58.66
19447;BME280;9862;49.462;11.054;2022-07-19T06:48:27;98504.78;;;24.82;58.90
19447;BME280;9862;49.462;11.054;2022-07-19T06:50:54;98504.19;;;24.85;58.43
19447;BME280;9862;49.462;11.054;2022-07-19T06:53:24;98493.53;;;24.89;58.32
19447;BME280;9862;49.462;11.054;2022-07-19T06:55:51;98494.28;;;24.94;57.43
19447;BME280;9862;49.462;11.054;2022-07-19T06:58:18;98494.81;;;24.96;57.21
19447;BME280;9862;49.462;11.054;2022-07-19T07:00:46;98491.22;;;25.01;56.88
19447;BME280;9862;49.462;11.054;2022-07-19T07:03:17;98487.13;;;25.03;57.35
19447;BME280;9862;49.462;11.054;2022-07-19T07:05:46;98489.50;;;25.10;58.04
19447;BME280;9862;49.462;11.054;2022-07-19T07:08:13;98492.97;;;25.16;58.28
19447;BME280;9862;49.462;11.054;2022-07-19T07:10:43;98490.19;;;25.21;57.48
19447;BME280;9862;49.462;11.054;2022-07-19T07:13:18;98489.00;;;25.27;56.74
19447;BME280;9862;49.462;11.054;2022-07-19T07:15:52;98488.63;;;25.33;56.13
19447;BME280;9862;49.462;11.054;2022-07-19T07:18:19;98485.03;;;25.38;55.85
19447;BME280;9862;49.462;11.054;2022-07-19T07:20:48;98482.25;;;25.43;55.96
19447;BME280;9862;49.462;11.054;2022-07-19T07:23:15;98488.13;;;25.50;55.41
19447;BME280;9862;49.462;11.054;2022-07-19T07:25:41;98483.09;;;25.57;55.33
19447;BME280;9862;49.462;11.054;2022-07-19T07:28:08;98484.03;;;25.72;59.88
19447;BME280;9862;49.462;11.054;2022-07-19T07:30:35;98475.69;;;25.82;58.14
19447;BME280;9862;49.462;11.054;2022-07-19T07:33:02;98478.03;;;25.88;56.20
